createdAt,value
2022-12-26T00:02:31.490Z,98225.06
2022-12-26T00:05:39.318Z,98218.16
2022-12-26T00:08:41.243Z,98212.97
2022-12-26T00:11:42.851Z,98215.56
2022-12-26T00:14:47.281Z,98205.22
2022-12-26T00:17:48.861Z,98206.06
2022-12-26T00:20:50.418Z,98211.31
2022-12-26T00:23:51.933Z,98209.56
2022-12-26T00:26:53.458Z,98206.97
2022-12-26T00:29:55.033Z,98216.53
2022-12-26T00:32:56.571Z,98207.84
2022-12-26T00:36:02.727Z,98202.69
2022-12-26T00:39:04.662Z,98200.94
2022-12-26T00:42:06.233Z,98193.13
2022-12-26T00:45:08.183Z,98204.38
2022-12-26T00:48:09.808Z,98198.34
2022-12-26T00:51:11.419Z,98205.25
2022-12-26T00:54:12.932Z,98212.16
2022-12-26T00:57:14.489Z,98200.88
2022-12-26T01:00:17.054Z,98204.34
2022-12-26T01:03:18.853Z,98211.28
2022-12-26T01:06:20.444Z,98211.28
2022-12-26T01:09:21.966Z,98210.41
2022-12-26T01:12:23.502Z,98208.66
2022-12-26T01:15:25.115Z,98203.53
2022-12-26T01:18:26.725Z,98210.41
2022-12-26T01:21:28.261Z,98210.44
2022-12-26T01:24:29.821Z,98218.28
2022-12-26T01:27:31.395Z,98222.59
2022-12-26T01:30:32.984Z,98204.44
2022-12-26T01:33:34.535Z,98216.59
2022-12-26T01:36:36.161Z,98210.56
2022-12-26T01:39:37.788Z,98201.00
2022-12-26T01:42:40.323Z,98215.75
2022-12-26T01:45:43.343Z,98191.50
2022-12-26T01:48:44.904Z,98196.72
2022-12-26T01:51:49.233Z,98182.84
2022-12-26T01:54:50.870Z,98193.28
2022-12-26T01:57:57.938Z,98192.38
2022-12-26T02:00:59.577Z,98192.38
2022-12-26T02:04:21.207Z,98213.19
2022-12-26T02:07:22.827Z,98235.69
2022-12-26T02:10:25.033Z,98226.16
2022-12-26T02:13:26.825Z,98226.16
2022-12-26T02:16:29.058Z,98222.69
2022-12-26T02:19:52.230Z,98235.69
2022-12-26T02:23:12.368Z,98230.50
2022-12-26T02:26:43.317Z,98222.72
2022-12-26T02:29:53.870Z,98227.06
2022-12-26T02:33:14.181Z,98227.06
2022-12-26T02:36:41.485Z,98235.75
2022-12-26T02:39:53.398Z,98233.16
2022-12-26T02:43:11.866Z,98214.88
2022-12-26T02:46:46.792Z,98227.00
2022-12-26T02:50:14.325Z,98228.72
2022-12-26T02:53:40.471Z,98224.31
2022-12-26T02:57:16.877Z,98219.09
2022-12-26T03:00:38.364Z,98219.09
2022-12-26T03:03:58.534Z,98217.34
2022-12-26T03:07:19.341Z,98234.69
2022-12-26T03:10:42.565Z,98237.31
2022-12-26T03:13:44.093Z,98240.78
2022-12-26T03:17:05.691Z,98246.03
2022-12-26T03:20:13.238Z,98242.53
2022-12-26T03:23:15.807Z,98240.81
2022-12-26T03:26:38.187Z,98245.16
2022-12-26T03:29:58.388Z,98250.31
2022-12-26T03:33:00.021Z,98247.75
2022-12-26T03:36:01.587Z,98259.03
2022-12-26T03:39:15.287Z,98266.88
2022-12-26T03:42:48.127Z,98263.41
2022-12-26T03:46:13.784Z,98269.50
2022-12-26T03:49:38.125Z,98268.59
2022-12-26T03:53:09.571Z,98272.94
2022-12-26T03:56:42.997Z,98269.44
2022-12-26T04:00:25.121Z,98270.31
2022-12-26T04:03:45.253Z,98268.59
2022-12-26T04:07:33.312Z,98273.81
2022-12-26T04:11:15.346Z,98278.09
2022-12-26T04:14:53.438Z,98312.69
2022-12-26T04:18:22.126Z,98315.25
2022-12-26T04:21:52.351Z,98342.19
2022-12-26T04:25:50.518Z,98350.88
2022-12-26T04:29:11.529Z,98354.34
2022-12-26T04:32:55.231Z,98374.34
2022-12-26T04:36:19.967Z,98380.38
2022-12-26T04:39:42.539Z,98394.28
2022-12-26T04:43:50.391Z,98383.84
2022-12-26T04:46:24.288Z,98396.81
2022-12-26T04:49:44.420Z,98388.16
2022-12-26T04:53:01.218Z,98386.44
2022-12-26T04:56:02.938Z,98388.13
2022-12-26T04:59:04.457Z,98411.56
2022-12-26T05:02:24.729Z,98428.03
2022-12-26T05:05:44.874Z,98437.59
2022-12-26T05:09:05.422Z,98425.47
2022-12-26T05:12:08.089Z,98420.34
2022-12-26T05:15:10.224Z,98422.97
2022-12-26T05:18:30.254Z,98394.28
2022-12-26T05:21:50.162Z,98428.91
2022-12-26T05:25:10.306Z,98447.19
2022-12-26T05:28:30.615Z,98456.72
2022-12-26T05:31:35.940Z,98460.19
2022-12-26T05:34:37.827Z,98479.31
2022-12-26T05:37:39.402Z,98480.22
2022-12-26T05:40:40.925Z,98487.91
2022-12-26T05:43:42.470Z,98497.44
2022-12-26T05:46:44.137Z,98505.28
2022-12-26T05:49:45.788Z,98514.81
2022-12-26T05:52:47.335Z,98516.53
2022-12-26T05:55:48.876Z,98525.34
2022-12-26T05:58:57.179Z,98506.25
2022-12-26T06:01:58.912Z,98499.25
2022-12-26T06:05:00.520Z,98505.31
2022-12-26T06:08:02.291Z,98493.94
2022-12-26T06:11:08.027Z,98495.69
2022-12-26T06:14:09.532Z,98484.44
2022-12-26T06:17:11.326Z,98478.41
2022-12-26T06:20:13.024Z,98466.34
2022-12-26T06:23:14.602Z,98439.44
2022-12-26T06:26:16.169Z,98420.31
2022-12-26T06:29:17.765Z,98407.25
2022-12-26T06:32:19.303Z,98399.44
2022-12-26T06:35:20.854Z,98381.22
2022-12-26T06:38:22.376Z,98375.13
2022-12-26T06:41:24.442Z,98357.75
2022-12-26T06:44:25.980Z,98342.09
2022-12-26T06:47:27.650Z,98330.84
2022-12-26T06:50:29.219Z,98341.31
2022-12-26T06:53:30.755Z,98322.19
2022-12-26T06:56:33.324Z,98323.94
2022-12-26T06:59:34.872Z,98314.41
2022-12-26T07:02:36.592Z,98316.13
2022-12-26T07:05:38.468Z,98323.09
2022-12-26T07:08:39.976Z,98309.19
2022-12-26T07:11:42.954Z,98305.75
2022-12-26T07:14:44.509Z,98302.28
2022-12-26T07:17:46.038Z,98296.22
2022-12-26T07:20:47.561Z,98280.59
2022-12-26T07:23:50.479Z,98279.72
2022-12-26T07:26:52.073Z,98284.97
2022-12-26T07:29:53.600Z,98278.91
2022-12-26T07:32:55.129Z,98285.03
2022-12-26T07:36:04.340Z,98287.63
2022-12-26T07:39:05.869Z,98272.88
2022-12-26T07:42:07.484Z,98270.28
2022-12-26T07:45:09.408Z,98258.13
2022-12-26T07:48:10.944Z,98272.03
2022-12-26T07:51:12.487Z,98281.59
2022-12-26T07:54:14.355Z,98285.06
2022-12-26T07:57:46.798Z,98284.22
2022-12-26T08:00:37.360Z,98288.53
2022-12-26T08:03:38.987Z,98288.53
2022-12-26T08:06:40.660Z,98279.91
2022-12-26T08:09:44.989Z,98294.63
2022-12-26T08:12:46.541Z,98292.91
2022-12-26T08:15:48.098Z,98298.09
2022-12-26T08:18:49.630Z,98285.09
2022-12-26T08:21:51.444Z,98300.69
2022-12-26T08:24:53.169Z,98297.25
2022-12-26T08:27:55.181Z,98321.53
2022-12-26T08:30:57.194Z,98316.38
2022-12-26T08:34:00.062Z,98331.09
2022-12-26T08:37:02.891Z,98335.47
2022-12-26T08:40:07.415Z,98345.88
2022-12-26T08:46:30.558Z,98355.47
2022-12-26T08:49:32.060Z,98352.84
2022-12-26T08:52:35.719Z,98351.13
2022-12-26T08:55:37.304Z,98351.97
2022-12-26T08:58:38.857Z,98339.81
2022-12-26T09:01:40.605Z,98332.84
2022-12-26T09:04:42.188Z,98338.94
2022-12-26T09:07:43.716Z,98351.97
2022-12-26T09:10:45.244Z,98355.44
2022-12-26T09:13:46.869Z,98365.00
2022-12-26T09:16:50.840Z,98369.31
2022-12-26T09:19:52.773Z,98376.25
2022-12-26T09:22:55.480Z,98377.13
2022-12-26T09:26:03.906Z,98388.41
2022-12-26T09:29:05.435Z,98391.88
2022-12-26T09:32:07.062Z,98385.78
2022-12-26T09:35:08.867Z,98404.84
2022-12-26T09:38:10.392Z,98405.72
2022-12-26T09:41:24.106Z,98417.88
2022-12-26T09:44:49.738Z,98440.47
2022-12-26T09:48:25.252Z,98450.03
2022-12-26T09:51:26.787Z,98437.00
2022-12-26T09:54:35.248Z,98456.97
2022-12-26T09:57:47.602Z,98453.53
2022-12-26T10:00:56.274Z,98463.94
2022-12-26T10:03:58.673Z,98467.44
2022-12-26T10:07:09.214Z,98462.22
2022-12-26T10:10:14.683Z,98452.66
2022-12-26T10:13:43.798Z,98456.13
2022-12-26T10:16:57.250Z,98459.59
2022-12-26T10:20:04.629Z,98462.25
2022-12-26T10:23:21.865Z,98480.47
2022-12-26T10:26:31.539Z,98481.34
2022-12-26T10:29:41.294Z,98475.25
2022-12-26T10:32:44.382Z,98480.47
2022-12-26T10:35:46.285Z,98471.75
2022-12-26T10:38:48.266Z,98456.16
2022-12-26T10:41:55.593Z,98466.56
2022-12-26T10:44:58.312Z,98477.88
2022-12-26T10:47:59.853Z,98471.78
2022-12-26T10:51:01.372Z,98443.13
2022-12-26T10:54:02.889Z,98458.78
2022-12-26T10:57:07.011Z,98460.47
2022-12-26T11:00:24.233Z,98474.38
2022-12-26T11:03:25.803Z,98470.03
2022-12-26T11:06:31.436Z,98475.25
2022-12-26T11:09:45.776Z,98489.97
2022-12-26T11:12:50.485Z,98492.59
2022-12-26T11:15:52.462Z,98490.88
2022-12-26T11:18:53.995Z,98490.00
2022-12-26T11:22:13.499Z,98494.34
2022-12-26T11:25:25.307Z,98476.97
2022-12-26T11:28:30.921Z,98462.19
2022-12-26T11:31:33.051Z,98470.91
2022-12-26T11:34:37.632Z,98458.72
2022-12-26T11:37:41.903Z,98467.41
2022-12-26T11:41:07.763Z,98459.59
2022-12-26T11:44:18.485Z,98478.72
2022-12-26T11:47:24.202Z,98483.91
2022-12-26T11:50:29.334Z,98475.22
2022-12-26T11:53:31.856Z,98476.06
2022-12-26T11:56:33.486Z,98458.75
2022-12-26T11:59:35.012Z,98441.38
2022-12-26T12:02:36.626Z,98456.13
2022-12-26T12:05:49.544Z,98452.66
2022-12-26T12:09:05.535Z,98449.19
2022-12-26T12:12:25.155Z,98450.91
2022-12-26T12:15:32.652Z,98443.09
2022-12-26T12:18:52.957Z,98430.97
2022-12-26T12:22:24.297Z,98430.06
2022-12-26T12:26:04.188Z,98439.63
2022-12-26T12:30:02.797Z,98439.63
2022-12-26T12:33:19.153Z,98434.44
2022-12-26T12:36:42.927Z,98438.78
2022-12-26T12:40:01.043Z,98430.09
2022-12-26T12:43:25.463Z,98436.16
2022-12-26T12:46:59.622Z,98429.22
2022-12-26T12:50:10.745Z,98423.16
2022-12-26T12:53:32.427Z,98437.03
2022-12-26T12:56:42.426Z,98437.03
2022-12-26T13:00:00.595Z,98431.84
2022-12-26T13:03:22.013Z,98418.81
2022-12-26T13:06:31.866Z,98408.38
2022-12-26T13:10:03.370Z,98410.13
2022-12-26T13:13:17.219Z,98407.50
2022-12-26T13:16:22.560Z,98416.22
2022-12-26T13:19:35.356Z,98420.53
2022-12-26T13:22:57.341Z,98424.00
2022-12-26T13:26:18.703Z,98404.91
2022-12-26T13:29:45.620Z,98410.13
2022-12-26T13:32:47.519Z,98395.38
2022-12-26T13:35:53.897Z,98400.56
2022-12-26T13:38:58.393Z,98413.59
2022-12-26T13:42:22.760Z,98398.78
2022-12-26T13:45:42.768Z,98404.88
2022-12-26T13:48:44.383Z,98408.34
2022-12-26T13:51:50.224Z,98411.84
2022-12-26T13:54:54.057Z,98404.00
2022-12-26T13:58:21.889Z,98410.09
2022-12-26T14:01:45.597Z,98430.94
2022-12-26T14:05:01.489Z,98419.63
2022-12-26T14:08:17.484Z,98421.41
2022-12-26T14:11:40.845Z,98424.91
2022-12-26T14:14:57.076Z,98450.06
2022-12-26T14:18:04.754Z,98448.34
2022-12-26T14:21:31.458Z,98444.88
2022-12-26T14:25:10.386Z,98430.09
2022-12-26T14:28:48.775Z,98442.25
2022-12-26T14:32:21.557Z,98433.56
2022-12-26T14:35:41.735Z,98430.97
2022-12-26T14:38:49.457Z,98431.81
2022-12-26T14:42:24.995Z,98438.78
2022-12-26T14:45:29.398Z,98425.75
2022-12-26T14:48:30.830Z,98429.22
2022-12-26T14:51:34.020Z,98432.69
2022-12-26T14:54:36.768Z,98422.28
2022-12-26T14:57:42.376Z,98433.56
2022-12-26T15:00:44.308Z,98433.56
2022-12-26T15:04:07.488Z,98436.19
2022-12-26T15:07:21.045Z,98438.78
2022-12-26T15:10:56.469Z,98427.47
2022-12-26T15:14:19.492Z,98430.09
2022-12-26T15:17:23.860Z,98444.88
2022-12-26T15:20:55.310Z,98439.63
2022-12-26T15:25:16.341Z,98442.25
2022-12-26T15:27:52.787Z,98433.59
2022-12-26T15:30:57.054Z,98449.19
2022-12-26T15:34:18.200Z,98442.25
2022-12-26T15:37:43.296Z,98448.34
2022-12-26T15:40:51.070Z,98444.84
2022-12-26T15:44:18.779Z,98442.25
2022-12-26T15:47:26.369Z,98454.41
2022-12-26T15:50:27.841Z,98456.13
2022-12-26T15:53:35.383Z,98470.03
2022-12-26T15:57:05.723Z,98457.88
2022-12-26T16:00:17.991Z,98457.00
2022-12-26T16:03:43.807Z,98454.41
2022-12-26T16:07:06.612Z,98455.28
2022-12-26T16:10:26.462Z,98453.53
2022-12-26T16:13:28.211Z,98466.59
2022-12-26T16:16:34.012Z,98449.19
2022-12-26T16:19:36.122Z,98467.47
2022-12-26T16:22:49.596Z,98463.09
2022-12-26T16:25:52.616Z,98468.34
2022-12-26T16:28:54.199Z,98472.63
2022-12-26T16:32:02.610Z,98466.56
2022-12-26T16:35:05.317Z,98455.28
2022-12-26T16:38:15.438Z,98458.75
2022-12-26T16:41:23.177Z,98453.56
2022-12-26T16:44:38.325Z,98462.25
2022-12-26T16:47:39.930Z,98469.19
2022-12-26T16:50:47.574Z,98464.84
2022-12-26T16:53:49.218Z,98466.59
2022-12-26T16:56:57.544Z,98479.63
2022-12-26T16:59:59.101Z,98476.16
2022-12-26T17:03:00.861Z,98482.22
2022-12-26T17:06:06.707Z,98481.34
2022-12-26T17:09:11.632Z,98479.59
2022-12-26T17:12:24.440Z,98487.44
2022-12-26T17:15:31.131Z,98497.84
2022-12-26T17:18:48.732Z,98495.25
2022-12-26T17:22:15.225Z,98502.22
2022-12-26T17:25:33.562Z,98485.72
2022-12-26T17:28:35.295Z,98497.88
2022-12-26T17:31:41.730Z,98502.19
2022-12-26T17:34:43.296Z,98511.75
2022-12-26T17:37:44.940Z,98523.03
2022-12-26T17:40:47.287Z,98530.88
2022-12-26T17:43:48.842Z,98534.34
2022-12-26T17:46:50.383Z,98531.72
2022-12-26T17:49:52.871Z,98556.91
2022-12-26T17:52:54.466Z,98539.53
2022-12-26T17:55:56.501Z,98563.88
2022-12-26T17:58:58.444Z,98554.34
2022-12-26T18:02:00.082Z,98542.16
2022-12-26T18:05:01.735Z,98576.00
2022-12-26T18:08:03.540Z,98581.19
2022-12-26T18:11:06.776Z,98602.75
2022-12-26T18:14:13.432Z,98650.28
2022-12-26T18:17:17.272Z,98630.22
2022-12-26T18:20:24.720Z,98640.56
2022-12-26T18:23:26.264Z,98689.94
2022-12-26T18:26:28.625Z,98664.69
2022-12-26T18:29:30.136Z,98659.44
2022-12-26T18:32:32.834Z,98675.91
2022-12-26T18:35:34.375Z,98674.22
2022-12-26T18:38:35.901Z,98678.56
2022-12-26T18:41:38.195Z,98672.50
2022-12-26T18:44:40.299Z,98675.09
2022-12-26T18:47:41.861Z,98688.16
2022-12-26T18:50:43.513Z,98692.53
2022-12-26T18:53:45.039Z,98692.53
2022-12-26T18:56:46.613Z,98697.72
2022-12-26T18:59:48.433Z,98704.63
2022-12-26T19:02:50.423Z,98702.00
2022-12-26T19:05:52.001Z,98693.28
2022-12-26T19:08:53.563Z,98690.66
2022-12-26T19:11:55.137Z,98701.03
2022-12-26T19:14:56.703Z,98702.78
2022-12-26T19:17:58.216Z,98694.13
2022-12-26T19:20:59.851Z,98696.63
2022-12-26T19:24:01.384Z,98707.00
2022-12-26T19:27:03.114Z,98706.06
2022-12-26T19:30:05.021Z,98717.31
2022-12-26T19:33:06.843Z,98730.31
2022-12-26T19:36:08.432Z,98731.13
2022-12-26T19:39:09.940Z,98738.91
2022-12-26T19:42:11.510Z,98748.47
2022-12-26T19:45:13.101Z,98769.25
2022-12-26T19:48:14.611Z,98758.09
2022-12-26T19:51:16.445Z,98766.88
2022-12-26T19:54:17.993Z,98762.50
2022-12-26T19:57:19.795Z,98778.00
2022-12-26T20:00:21.421Z,98802.09
2022-12-26T20:03:23.052Z,98809.88
2022-12-26T20:06:26.081Z,98815.91
2022-12-26T20:09:27.796Z,98825.44
2022-12-26T20:12:29.553Z,98827.16
2022-12-26T20:15:32.800Z,98840.97
2022-12-26T20:18:35.336Z,98848.75
2022-12-26T20:21:38.443Z,98853.09
2022-12-26T20:24:40.043Z,98872.09
2022-12-26T20:27:41.581Z,98879.00
2022-12-26T20:30:43.197Z,98881.53
2022-12-26T20:33:46.286Z,98888.44
2022-12-26T20:36:47.934Z,98890.97
2022-12-26T20:39:49.496Z,98903.09
2022-12-26T20:42:51.049Z,98903.03
2022-12-26T20:45:52.847Z,98910.06
2022-12-26T20:48:54.576Z,98911.72
2022-12-26T20:51:56.186Z,98942.97
2022-12-26T20:54:58.673Z,98949.97
2022-12-26T20:58:00.247Z,98965.53
2022-12-26T21:01:10.483Z,98981.06
2022-12-26T21:04:21.594Z,98994.84
2022-12-26T21:07:23.162Z,98999.19
2022-12-26T21:10:24.729Z,99014.84
2022-12-26T21:13:26.282Z,99040.75
2022-12-26T21:16:30.019Z,99054.50
2022-12-26T21:19:31.564Z,99054.44
2022-12-26T21:22:33.131Z,99060.44
2022-12-26T21:25:34.742Z,99072.50
2022-12-26T21:28:36.598Z,99087.22
2022-12-26T21:31:38.263Z,99095.78
2022-12-26T21:34:39.814Z,99105.28
2022-12-26T21:37:51.506Z,99134.75
2022-12-26T21:40:53.078Z,99146.72
2022-12-26T21:43:54.918Z,99149.13
2022-12-26T21:46:56.451Z,99161.09
2022-12-26T21:49:57.999Z,99160.16
2022-12-26T21:52:59.598Z,99158.16
2022-12-26T21:56:07.596Z,99168.44
2022-12-26T21:59:28.174Z,99158.69
2022-12-26T22:02:50.391Z,99155.94
2022-12-26T22:05:52.056Z,99155.94
2022-12-26T22:08:53.711Z,99167.47
2022-12-26T22:12:13.774Z,99192.78
2022-12-26T22:15:33.866Z,99195.22
2022-12-26T22:18:43.543Z,99204.75
2022-12-26T22:21:45.116Z,99213.31
2022-12-26T22:24:46.684Z,99208.03
2022-12-26T22:27:48.509Z,99218.91
2022-12-26T22:30:50.610Z,99217.91
2022-12-26T22:34:04.725Z,99217.91
2022-12-26T22:37:06.356Z,99233.47
2022-12-26T22:40:08.587Z,99230.81
2022-12-26T22:43:10.386Z,99231.00
2022-12-26T22:46:15.328Z,99242.13
2022-12-26T22:49:16.982Z,99261.28
2022-12-26T22:52:18.570Z,99271.56
2022-12-26T22:55:20.381Z,99275.78
2022-12-26T22:58:22.615Z,99275.66
2022-12-26T23:01:24.358Z,99285.03
2022-12-26T23:04:26.544Z,99290.19
2022-12-26T23:07:28.686Z,99311.19
2022-12-26T23:10:31.008Z,99317.03
2022-12-26T23:13:35.411Z,99311.56
2022-12-26T23:16:38.864Z,99310.66
2022-12-26T23:20:06.490Z,99316.56
2022-12-26T23:23:11.194Z,99325.31
2022-12-26T23:26:12.800Z,99321.69
2022-12-26T23:29:34.697Z,99345.25
2022-12-26T23:32:36.999Z,99351.09
2022-12-26T23:35:40.240Z,99364.75
2022-12-26T23:38:44.962Z,99353.16
2022-12-26T23:41:46.819Z,99354.75
2022-12-26T23:44:48.657Z,99361.97
2022-12-26T23:47:50.623Z,99378.25
2022-12-26T23:51:01.091Z,99392.50
2022-12-26T23:54:02.605Z,99407.09
2022-12-26T23:57:04.267Z,99415.50
